Time,TemperatureF,DewpointF,PressureIn,WindDirection,WindDirectionDegrees,WindSpeedMPH,WindSpeedGustMPH,Humidity,HourlyPrecipIn,Conditions,Clouds,dailyrainin,SoftwareType,DateUTC
2013-09-21 00:05:00,53.2,47.6,30.03,SE,135,0.0,0.0,81,0.00,,,0.00,WeatherCatV1.21B27,2013-09-20 23:05:00,
2013-09-21 00:15:00,53.2,47.6,30.04,WSW,247,0.0,0.0,81,0.00,,,0.00,WeatherCatV1.21B27,2013-09-20 23:15:00,
2013-09-21 00:25:00,52.9,47.2,30.03,North,0,0.0,3.1,81,0.00,,,0.00,WeatherCatV1.21B27,2013-09-20 23:25:00,
2013-09-21 00:35:00,52.9,47.5,30.04,NNE,22,0.0,0.0,82,0.00,,,0.00,WeatherCatV1.21B27,2013-09-20 23:35:00,
2013-09-21 00:45:00,52.3,46.7,30.03,NNE,22,0.0,0.0,81,0.00,,,0.00,WeatherCatV1.21B27,2013-09-20 23:45:00,
2013-09-21 00:55:00,52.0,47.0,30.03,WNW,292,0.0,1.1,83,0.00,,,0.00,WeatherCatV1.21B27,2013-09-20 23:55:00,
2013-09-21 01:05:00,51.6,46.6,30.03,WNW,292,0.0,0.0,83,0.00,,,0.00,WeatherCatV1.21B27,2013-09-21 00:05:00,
2013-09-21 01:15:00,51.6,46.6,30.03,WNW,292,0.0,0.0,83,0.00,,,0.00,WeatherCatV1.21B27,2013-09-21 00:15:00,
2013-09-21 01:25:00,51.6,46.9,30.03,SE,135,1.8,3.4,84,0.00,,,0.00,WeatherCatV1.21B27,2013-09-21 00:25:00,
2013-09-21 01:35:00,51.4,46.7,30.03,SE,135,0.0,0.0,84,0.00,,,0.00,WeatherCatV1.21B27,2013-09-21 00:35:00,
2013-09-21 01:45:00,51.1,46.4,30.03,SSW,202,0.0,1.6,84,0.00,,,0.00,WeatherCatV1.21B27,2013-09-21 00:45:00,
2013-09-21 01:55:00,50.9,46.5,30.03,South,180,0.0,0.0,85,0.00,,,0.00,WeatherCatV1.21B27,2013-09-21 00:55:00,
2013-09-21 02:05:00,50.5,46.1,30.03,South,180,0.0,0.0,85,0.00,,,0.00,WeatherCatV1.21B27,2013-09-21 01:05:00,
2013-09-21 02:15:00,50.2,45.8,30.04,WNW,292,0.0,1.1,85,0.00,,,0.00,WeatherCatV1.21B27,2013-09-21 01:15:00,
2013-09-21 02:25:00,50.2,46.1,30.04,SE,135,0.0,0.0,86,0.00,,,0.00,WeatherCatV1.21B27,2013-09-21 01:25:00,
2013-09-21 02:35:00,50.2,46.1,30.04,SE,135,0.0,0.0,86,0.00,,,0.00,WeatherCatV1.21B27,2013-09-21 01:35:00,
2013-09-21 02:45:00,49.8,45.7,30.05,SE,135,0.0,0.0,86,0.00,,,0.00,WeatherCatV1.21B27,2013-09-21 01:45:00,
2013-09-21 02:55:00,49.6,45.9,30.04,SE,135,0.0,0.0,87,0.00,,,0.00,WeatherCatV1.21B27,2013-09-21 01:55:00,
2013-09-21 03:05:00,49.5,45.7,30.04,SE,135,0.0,0.0,87,0.00,,,0.00,WeatherCatV1.21B27,2013-09-21 02:05:00,
2013-09-21 03:15:00,49.3,45.5,30.05,SE,135,0.0,0.0,87,0.00,,,0.00,WeatherCatV1.21B27,2013-09-21 02:15:00,
2013-09-21 03:25:00,49.3,45.5,30.05,East,90,0.0,0.0,87,0.00,,,0.00,WeatherCatV1.21B27,2013-09-21 02:25:00,
2013-09-21 03:35:00,49.3,45.5,30.04,East,90,0.0,0.0,87,0.00,,,0.00,WeatherCatV1.21B27,2013-09-21 02:35:00,
2013-09-21 03:45:00,48.9,45.2,30.03,East,90,0.0,0.0,87,0.00,,,0.00,WeatherCatV1.21B27,2013-09-21 02:45:00,
2013-09-21 03:55:00,48.7,45.3,30.03,ENE,67,0.0,0.0,88,0.00,,,0.00,WeatherCatV1.21B27,2013-09-21 02:55:00,
2013-09-21 04:05:00,48.4,45.0,30.03,ENE,67,0.0,0.0,88,0.00,,,0.00,WeatherCatV1.21B27,2013-09-21 03:05:00,
2013-09-21 04:15:00,47.8,44.5,30.02,ENE,67,0.0,0.0,88,0.00,,,0.00,WeatherCatV1.21B27,2013-09-21 03:15:00,
2013-09-21 04:25:00,47.3,44.3,30.03,ENE,67,0.0,0.0,89,0.00,,,0.00,WeatherCatV1.21B27,2013-09-21 03:25:00,
2013-09-21 04:35:00,47.1,44.1,30.03,ENE,67,0.0,0.0,89,0.00,,,0.00,WeatherCatV1.21B27,2013-09-21 03:35:00,
2013-09-21 04:45:00,47.1,44.4,30.03,NNE,22,0.0,0.0,90,0.00,,,0.00,WeatherCatV1.21B27,2013-09-21 03:45:00,
2013-09-21 04:55:00,47.1,44.4,30.04,North,0,0.0,2.5,90,0.00,,,0.00,WeatherCatV1.21B27,2013-09-21 03:55:00,
2013-09-21 05:05:00,47.1,44.4,30.04,North,0,0.0,0.0,90,0.00,,,0.00,WeatherCatV1.21B27,2013-09-21 04:05:00,
2013-09-21 05:15:00,46.9,44.2,30.03,North,0,0.0,0.0,90,0.00,,,0.00,WeatherCatV1.21B27,2013-09-21 04:15:00,
2013-09-21 05:25:00,46.6,43.9,30.04,North,0,0.0,0.0,90,0.00,,,0.00,WeatherCatV1.21B27,2013-09-21 04:25:00,
2013-09-21 05:35:00,46.4,44.0,30.04,North,0,0.0,0.0,91,0.00,,,0.00,WeatherCatV1.21B27,2013-09-21 04:35:00,
2013-09-21 05:45:00,46.2,43.8,30.04,North,0,0.0,0.0,91,0.00,,,0.00,WeatherCatV1.21B27,2013-09-21 04:45:00,
2013-09-21 05:55:00,45.7,43.2,30.04,NW,315,0.0,0.0,91,0.00,,,0.00,WeatherCatV1.21B27,2013-09-21 04:55:00,
2013-09-21 06:05:00,45.7,43.2,30.05,NW,315,0.0,0.0,91,0.00,,,0.00,WeatherCatV1.21B27,2013-09-21 05:05:00,
2013-09-21 06:15:00,45.3,42.9,30.04,West,270,0.0,0.0,91,0.00,,,0.00,WeatherCatV1.21B27,2013-09-21 05:15:00,
2013-09-21 06:25:00,45.0,42.5,30.04,West,270,0.0,0.0,91,0.00,,,0.00,WeatherCatV1.21B27,2013-09-21 05:25:00,
2013-09-21 06:35:00,44.6,42.2,30.04,West,270,0.0,0.0,91,0.00,,,0.00,WeatherCatV1.21B27,2013-09-21 05:35:00,
2013-09-21 06:45:00,44.4,42.0,30.04,West,270,0.0,0.0,91,0.00,,,0.00,WeatherCatV1.21B27,2013-09-21 05:45:00,
2013-09-21 06:55:00,44.8,42.6,30.05,West,270,0.0,0.0,92,0.00,,,0.00,WeatherCatV1.21B27,2013-09-21 05:55:00,
2013-09-21 07:05:00,45.1,43.0,30.05,West,270,0.0,0.0,92,0.00,,,0.00,WeatherCatV1.21B27,2013-09-21 06:05:00,
2013-09-21 07:15:00,45.3,43.2,30.05,North,0,0.0,0.0,92,0.00,,,0.00,WeatherCatV1.21B27,2013-09-21 06:15:00,
2013-09-21 07:25:00,45.3,43.2,30.05,SSW,202,0.0,0.0,92,0.00,,,0.00,WeatherCatV1.21B27,2013-09-21 06:25:00,
2013-09-21 07:35:00,46.2,44.3,30.05,West,270,0.0,0.0,93,0.00,,,0.00,WeatherCatV1.21B27,2013-09-21 06:35:00,
2013-09-21 07:45:00,46.9,45.2,30.06,North,0,0.0,0.0,93,0.00,,,0.00,WeatherCatV1.21B27,2013-09-21 06:45:00,
2013-09-21 07:55:00,47.8,46.2,30.06,NW,315,0.0,1.8,94,0.00,,,0.00,WeatherCatV1.21B27,2013-09-21 06:55:00,
2013-09-21 08:05:00,48.6,46.9,30.06,NNW,337,0.0,0.0,94,0.00,,,0.00,WeatherCatV1.21B27,2013-09-21 07:05:00,
2013-09-21 08:15:00,48.9,47.0,30.06,North,0,0.0,0.0,93,0.00,,,0.00,WeatherCatV1.21B27,2013-09-21 07:15:00,
2013-09-21 08:25:00,49.3,47.3,30.06,North,0,0.0,0.0,93,0.00,,,0.00,WeatherCatV1.21B27,2013-09-21 07:25:00,
2013-09-21 08:35:00,49.8,47.8,30.05,North,0,0.0,0.0,93,0.00,,,0.00,WeatherCatV1.21B27,2013-09-21 07:35:00,
2013-09-21 08:45:00,50.7,48.7,30.05,North,0,0.0,0.0,93,0.00,,,0.00,WeatherCatV1.21B27,2013-09-21 07:45:00,
2013-09-21 08:55:00,51.4,49.4,30.05,NW,315,0.0,0.0,93,0.00,,,0.00,WeatherCatV1.21B27,2013-09-21 07:55:00,
2013-09-21 09:05:00,51.6,49.6,30.05,NNW,337,0.0,0.0,93,0.00,,,0.00,WeatherCatV1.21B27,2013-09-21 08:05:00,
2013-09-21 09:15:00,52.3,50.0,30.06,SSW,202,0.0,1.3,92,0.00,,,0.00,WeatherCatV1.21B27,2013-09-21 08:15:00,
2013-09-21 09:25:00,52.9,50.6,30.06,NNW,337,0.0,0.0,92,0.00,,,0.00,WeatherCatV1.21B27,2013-09-21 08:25:00,
2013-09-21 09:35:00,53.8,51.2,30.06,SSW,202,0.0,0.0,91,0.00,,,0.00,WeatherCatV1.21B27,2013-09-21 08:35:00,
2013-09-21 09:45:00,55.2,52.3,30.06,South,180,2.5,3.6,90,0.00,,,0.00,WeatherCatV1.21B27,2013-09-21 08:45:00,
2013-09-21 09:55:00,56.8,53.3,30.06,SSE,157,1.6,3.1,88,0.00,,,0.00,WeatherCatV1.21B27,2013-09-21 08:55:00,
2013-09-21 10:05:00,57.7,53.9,30.07,SSE,157,0.0,0.9,87,0.00,,,0.00,WeatherCatV1.21B27,2013-09-21 09:05:00,
2013-09-21 10:15:00,58.3,54.1,30.07,ENE,67,0.0,1.3,86,0.00,,,0.00,WeatherCatV1.21B27,2013-09-21 09:15:00,
2013-09-21 10:25:00,58.8,54.0,30.07,SSE,157,0.0,0.0,84,0.00,,,0.00,WeatherCatV1.21B27,2013-09-21 09:25:00,
2013-09-21 10:35:00,58.8,53.7,30.07,SSE,157,0.0,0.0,83,0.00,,,0.00,WeatherCatV1.21B27,2013-09-21 09:35:00,
2013-09-21 10:45:00,58.8,53.0,30.07,SE,135,2.7,3.1,81,0.00,,,0.00,WeatherCatV1.21B27,2013-09-21 09:45:00,
2013-09-21 10:55:00,58.5,52.7,30.08,SE,135,0.0,1.6,81,0.00,,,0.00,WeatherCatV1.21B27,2013-09-21 09:55:00,
2013-09-21 11:05:00,58.1,52.6,30.08,South,180,0.0,1.3,82,0.00,,,0.00,WeatherCatV1.21B27,2013-09-21 10:05:00,
2013-09-21 11:15:00,58.3,53.1,30.07,SSE,157,0.0,0.0,83,0.00,,,0.00,WeatherCatV1.21B27,2013-09-21 10:15:00,
2013-09-21 11:25:00,58.6,53.2,30.07,SSE,157,0.0,0.0,82,0.00,,,0.00,WeatherCatV1.21B27,2013-09-21 10:25:00,
2013-09-21 11:35:00,59.0,53.5,30.08,North,0,0.0,1.6,82,0.00,,,0.00,WeatherCatV1.21B27,2013-09-21 10:35:00,
2013-09-21 11:45:00,60.1,54.3,30.06,SSE,157,0.0,0.0,81,0.00,,,0.00,WeatherCatV1.21B27,2013-09-21 10:45:00,
2013-09-21 11:55:00,60.8,55.0,30.07,SSW,202,2.9,2.9,81,0.00,,,0.00,WeatherCatV1.21B27,2013-09-21 10:55:00,
2013-09-21 12:05:00,61.5,55.7,30.07,SSE,157,0.0,1.1,81,0.00,,,0.00,WeatherCatV1.21B27,2013-09-21 11:05:00,
2013-09-21 12:15:00,61.9,55.7,30.07,SE,135,0.0,0.0,80,0.00,,,0.00,WeatherCatV1.21B27,2013-09-21 11:15:00,
2013-09-21 12:25:00,62.4,55.6,30.07,SE,135,1.8,3.6,79,0.00,,,0.00,WeatherCatV1.21B27,2013-09-21 11:25:00,
2013-09-21 12:35:00,62.4,55.8,30.07,West,270,0.0,0.9,79,0.00,,,0.00,WeatherCatV1.21B27,2013-09-21 11:35:00,
2013-09-21 12:45:00,62.2,55.6,30.06,West,270,0.0,0.0,79,0.00,,,0.00,WeatherCatV1.21B27,2013-09-21 11:45:00,
2013-09-21 12:55:00,61.9,55.3,30.07,West,270,0.0,1.8,79,0.00,,,0.00,WeatherCatV1.21B27,2013-09-21 11:55:00,
2013-09-21 13:05:00,62.2,55.6,30.08,NW,315,1.1,2.2,79,0.00,,,0.00,WeatherCatV1.21B27,2013-09-21 12:05:00,
2013-09-21 13:15:00,62.4,55.4,30.08,SSE,157,0.0,4.7,79,0.00,,,0.00,WeatherCatV1.21B27,2013-09-21 12:15:00,
2013-09-21 13:25:00,62.8,56.1,30.07,SE,135,2.5,2.5,79,0.00,,,0.00,WeatherCatV1.21B27,2013-09-21 12:25:00,
2013-09-21 13:35:00,62.8,55.8,30.07,NW,315,0.0,1.3,78,0.00,,,0.00,WeatherCatV1.21B27,2013-09-21 12:35:00,
2013-09-21 13:45:00,63.1,56.1,30.07,North,0,0.0,1.1,78,0.00,,,0.00,WeatherCatV1.21B27,2013-09-21 12:45:00,
2013-09-21 13:55:00,63.7,56.7,30.07,NE,45,0.0,0.0,78,0.00,,,0.00,WeatherCatV1.21B27,2013-09-21 12:55:00,
2013-09-21 14:05:00,64.0,56.7,30.08,West,270,1.1,1.6,77,0.00,,,0.00,WeatherCatV1.21B27,2013-09-21 13:05:00,
2013-09-21 14:15:00,63.3,56.1,30.07,SE,135,0.0,2.0,77,0.00,,,0.00,WeatherCatV1.21B27,2013-09-21 13:15:00,
2013-09-21 14:25:00,63.5,56.1,30.08,SE,135,1.6,1.6,77,0.00,,,0.00,WeatherCatV1.21B27,2013-09-21 13:25:00,
2013-09-21 14:35:00,63.3,55.9,30.08,NW,315,0.0,0.0,77,0.00,,,0.00,WeatherCatV1.21B27,2013-09-21 13:35:00,
2013-09-21 14:45:00,63.1,55.8,30.07,NW,315,0.0,3.1,77,0.00,,,0.00,WeatherCatV1.21B27,2013-09-21 13:45:00,
2013-09-21 14:55:00,63.1,55.8,30.07,East,90,3.1,3.1,77,0.00,,,0.00,WeatherCatV1.21B27,2013-09-21 13:55:00,
2013-09-21 15:05:00,63.3,55.9,30.07,SW,225,0.0,2.7,77,0.00,,,0.00,WeatherCatV1.21B27,2013-09-21 14:05:00,
2013-09-21 15:15:00,63.7,56.7,30.08,WNW,292,0.0,1.6,78,0.00,,,0.00,WeatherCatV1.21B27,2013-09-21 14:15:00,
2013-09-21 15:25:00,63.3,56.3,30.08,West,270,0.0,1.3,78,0.00,,,0.00,WeatherCatV1.21B27,2013-09-21 14:25:00,
2013-09-21 15:35:00,63.5,56.5,30.07,SE,135,0.0,1.1,78,0.00,,,0.00,WeatherCatV1.21B27,2013-09-21 14:35:00,
2013-09-21 15:45:00,63.7,56.7,30.07,SSE,157,0.0,1.3,78,0.00,,,0.00,WeatherCatV1.21B27,2013-09-21 14:45:00,
2013-09-21 15:55:00,63.7,56.7,30.07,NW,315,0.0,3.4,78,0.00,,,0.00,WeatherCatV1.21B27,2013-09-21 14:55:00,
2013-09-21 16:05:00,63.7,56.7,30.08,NW,315,0.0,1.3,78,0.00,,,0.00,WeatherCatV1.21B27,2013-09-21 15:05:00,
2013-09-21 16:15:00,64.9,58.3,30.07,West,270,0.0,2.2,79,0.00,,,0.00,WeatherCatV1.21B27,2013-09-21 15:15:00,
2013-09-21 16:25:00,66.4,58.2,30.07,ESE,112,3.1,3.1,75,0.00,,,0.00,WeatherCatV1.21B27,2013-09-21 15:25:00,
2013-09-21 16:35:00,66.6,57.6,30.07,SSW,202,0.0,2.5,73,0.00,,,0.00,WeatherCatV1.21B27,2013-09-21 15:35:00,
2013-09-21 16:45:00,66.4,57.1,30.07,NNW,337,0.0,0.0,72,0.00,,,0.00,WeatherCatV1.21B27,2013-09-21 15:45:00,
2013-09-21 16:55:00,66.0,56.7,30.07,ESE,112,3.4,3.4,72,0.00,,,0.00,WeatherCatV1.21B27,2013-09-21 15:55:00,
2013-09-21 17:05:00,64.8,55.9,30.07,SSW,202,0.0,4.5,73,0.00,,,0.00,WeatherCatV1.21B27,2013-09-21 16:05:00,
2013-09-21 17:15:00,63.7,55.6,30.06,ENE,67,0.7,2.0,75,0.00,,,0.00,WeatherCatV1.21B27,2013-09-21 16:15:00,
2013-09-21 17:25:00,63.7,55.9,30.07,NNE,22,1.6,4.7,76,0.00,,,0.00,WeatherCatV1.21B27,2013-09-21 16:25:00,
2013-09-21 17:35:00,63.3,56.3,30.08,NW,315,0.9,2.9,78,0.00,,,0.00,WeatherCatV1.21B27,2013-09-21 16:35:00,
2013-09-21 17:45:00,63.0,56.3,30.08,ESE,112,0.0,2.9,79,0.00,,,0.00,WeatherCatV1.21B27,2013-09-21 16:45:00,
2013-09-21 17:55:00,62.2,56.0,30.07,WSW,247,0.0,1.3,80,0.00,,,0.00,WeatherCatV1.21B27,2013-09-21 16:55:00,
2013-09-21 18:05:00,61.5,55.7,30.08,WSW,247,0.0,1.3,81,0.00,,,0.00,WeatherCatV1.21B27,2013-09-21 17:05:00,
2013-09-21 18:15:00,61.3,55.8,30.08,North,0,0.0,0.0,82,0.00,,,0.00,WeatherCatV1.21B27,2013-09-21 17:15:00,
2013-09-21 18:25:00,61.3,55.8,30.08,South,180,0.0,1.1,82,0.00,,,0.00,WeatherCatV1.21B27,2013-09-21 17:25:00,
2013-09-21 18:35:00,61.2,56.0,30.08,NW,315,0.0,1.3,83,0.00,,,0.00,WeatherCatV1.21B27,2013-09-21 17:35:00,
2013-09-21 18:45:00,61.0,56.1,30.08,WNW,292,0.0,2.2,84,0.00,,,0.00,WeatherCatV1.21B27,2013-09-21 17:45:00,
2013-09-21 18:55:00,61.0,56.0,30.08,SE,135,0.0,2.0,84,0.00,,,0.00,WeatherCatV1.21B27,2013-09-21 17:55:00,
2013-09-21 19:05:00,60.8,56.0,30.08,SE,135,1.1,2.5,84,0.00,,,0.00,WeatherCatV1.21B27,2013-09-21 18:05:00,
2013-09-21 19:15:00,60.6,56.1,30.08,SSE,157,0.0,0.0,85,0.00,,,0.00,WeatherCatV1.21B27,2013-09-21 18:15:00,
2013-09-21 19:25:00,60.6,56.1,30.09,SE,135,0.0,4.0,85,0.00,,,0.00,WeatherCatV1.21B27,2013-09-21 18:25:00,
2013-09-21 19:35:00,60.6,56.4,30.09,NNW,337,0.0,0.0,86,0.00,,,0.00,WeatherCatV1.21B27,2013-09-21 18:35:00,
2013-09-21 19:45:00,60.6,56.4,30.09,South,180,1.1,1.1,86,0.00,,,0.00,WeatherCatV1.21B27,2013-09-21 18:45:00,
2013-09-21 19:55:00,60.6,56.6,30.09,West,270,0.0,2.2,86,0.00,,,0.00,WeatherCatV1.21B27,2013-09-21 18:55:00,
2013-09-21 20:05:00,61.0,56.8,30.09,ENE,67,0.0,0.0,86,0.00,,,0.00,WeatherCatV1.21B27,2013-09-21 19:05:00,
2013-09-21 20:15:00,61.0,57.1,30.09,West,270,3.4,3.4,87,0.00,,,0.00,WeatherCatV1.21B27,2013-09-21 19:15:00,
2013-09-21 20:25:00,61.0,57.1,30.09,SE,135,0.0,2.0,87,0.00,,,0.00,WeatherCatV1.21B27,2013-09-21 19:25:00,
2013-09-21 20:35:00,61.0,57.1,30.09,WSW,247,0.0,0.0,87,0.00,,,0.00,WeatherCatV1.21B27,2013-09-21 19:35:00,
2013-09-21 20:45:00,61.2,57.3,30.09,SE,135,0.0,1.3,87,0.00,,,0.00,WeatherCatV1.21B27,2013-09-21 19:45:00,
2013-09-21 20:55:00,60.6,56.8,30.09,NW,315,0.0,0.0,87,0.00,,,0.00,WeatherCatV1.21B27,2013-09-21 19:55:00,
2013-09-21 21:05:00,60.4,56.6,30.09,NW,315,0.0,0.0,87,0.00,,,0.00,WeatherCatV1.21B27,2013-09-21 20:05:00,
2013-09-21 21:15:00,60.1,56.2,30.09,NW,315,0.0,0.0,87,0.00,,,0.00,WeatherCatV1.21B27,2013-09-21 20:15:00,
2013-09-21 21:25:00,60.1,56.4,30.09,NW,315,0.0,0.0,88,0.00,,,0.00,WeatherCatV1.21B27,2013-09-21 20:25:00,
2013-09-21 21:35:00,60.1,56.5,30.09,SW,225,0.0,0.0,88,0.00,,,0.00,WeatherCatV1.21B27,2013-09-21 20:35:00,
2013-09-21 21:45:00,60.1,56.5,30.09,West,270,1.6,2.5,88,0.00,,,0.00,WeatherCatV1.21B27,2013-09-21 20:45:00,
2013-09-21 21:55:00,60.4,56.9,30.10,SE,135,1.6,1.6,88,0.00,,,0.00,WeatherCatV1.21B27,2013-09-21 20:55:00,
2013-09-21 22:05:00,60.6,57.3,30.10,NW,315,0.0,0.9,88,0.00,,,0.00,WeatherCatV1.21B27,2013-09-21 21:05:00,
2013-09-21 22:15:00,61.0,57.4,30.10,WNW,292,0.0,0.9,88,0.00,,,0.00,WeatherCatV1.21B27,2013-09-21 21:15:00,
2013-09-21 22:25:00,61.0,57.1,30.10,South,180,0.0,1.8,87,0.00,,,0.00,WeatherCatV1.21B27,2013-09-21 21:25:00,
2013-09-21 22:35:00,61.2,57.0,30.10,NE,45,2.0,2.5,86,0.00,,,0.00,WeatherCatV1.21B27,2013-09-21 21:35:00,
2013-09-21 22:45:00,61.3,57.1,30.10,NW,315,0.0,0.0,86,0.00,,,0.00,WeatherCatV1.21B27,2013-09-21 21:45:00,
2013-09-21 22:55:00,61.7,57.2,30.11,WSW,247,0.0,0.0,85,0.00,,,0.00,WeatherCatV1.21B27,2013-09-21 21:55:00,
2013-09-21 23:05:00,61.9,57.3,30.11,ENE,67,0.0,4.0,85,0.00,,,0.00,WeatherCatV1.21B27,2013-09-21 22:05:00,
2013-09-21 23:15:00,61.9,57.3,30.11,West,270,0.0,2.2,85,0.00,,,0.00,WeatherCatV1.21B27,2013-09-21 22:15:00,
2013-09-21 23:25:00,61.9,57.3,30.11,SE,135,3.1,3.1,85,0.00,,,0.00,WeatherCatV1.21B27,2013-09-21 22:25:00,
2013-09-21 23:35:00,61.7,57.2,30.11,West,270,0.0,0.0,85,0.00,,,0.00,WeatherCatV1.21B27,2013-09-21 22:35:00,
2013-09-21 23:45:00,61.7,57.2,30.11,NW,315,0.0,1.1,85,0.00,,,0.00,WeatherCatV1.21B27,2013-09-21 22:45:00,
2013-09-21 23:55:00,61.3,56.8,30.11,NNW,337,0.9,3.1,85,0.00,,,0.00,WeatherCatV1.21B27,2013-09-21 22:55:00,